Time;durP1;ratioP1;P1;durP2;ratioP2;P2;SDS_P1;SDS_P2;PMS_P1;PMS_P2;Temp;Humidity;BMP_temperature;BMP_pressure;BME280_temperature;BME280_humidity;BME280_pressure;Samples;Min_cycle;Max_cycle;Signal;HPM_P1;HPM_P2
2021/04/07 00:01:40;;;;;;;8.65;2.50;;;2.20;99.90;;;;;;4162294;28;20111;-68
2021/04/07 00:03:41;;;;;;;6.00;2.22;;;2.30;99.90;;;;;;4162399;28;20099;-68
2021/04/07 00:05:45;;;;;;;8.05;2.67;;;2.20;99.90;;;;;;4160596;28;20042;-69
2021/04/07 00:07:49;;;;;;;5.32;2.22;;;2.20;99.90;;;;;;4155991;28;20486;-69
2021/04/07 00:09:49;;;;;;;7.70;2.47;;;2.20;99.90;;;;;;4163289;28;20429;-68
2021/04/07 00:11:50;;;;;;;6.13;2.30;;;2.20;99.90;;;;;;4157207;28;20041;-69
2021/04/07 00:13:51;;;;;;;9.90;2.70;;;2.20;99.90;;;;;;4162078;28;20036;-68
2021/04/07 00:15:52;;;;;;;8.27;2.92;;;2.20;99.90;;;;;;4157022;28;20363;-69
2021/04/07 00:17:53;;;;;;;9.68;2.65;;;2.20;99.90;;;;;;4156530;28;20121;-69
2021/04/07 00:19:53;;;;;;;6.72;2.92;;;2.20;99.90;;;;;;4181443;28;20060;-69
2021/04/07 00:21:54;;;;;;;9.50;2.97;;;2.10;99.90;;;;;;4156663;28;20167;-68
2021/04/07 00:23:54;;;;;;;8.52;2.83;;;2.20;99.90;;;;;;4170596;28;20053;-68
2021/04/07 00:25:55;;;;;;;14.05;3.70;;;2.20;99.90;;;;;;4156936;28;20038;-69
2021/04/07 00:28:01;;;;;;;6.90;3.25;;;2.20;99.90;;;;;;4153311;28;20048;-68
2021/04/07 00:30:07;;;;;;;9.70;3.60;;;2.20;99.90;;;;;;4166462;28;20120;-68
2021/04/07 00:32:07;;;;;;;11.43;3.20;;;2.20;99.90;;;;;;4154908;28;20060;-69
2021/04/07 00:34:08;;;;;;;10.23;4.03;;;2.20;99.90;;;;;;4156947;28;20087;-68
2021/04/07 00:36:09;;;;;;;8.73;3.40;;;2.10;99.90;;;;;;4162099;28;20037;-69
2021/04/07 00:38:12;;;;;;;6.03;3.45;;;2.20;99.90;;;;;;4158212;28;20037;-68
2021/04/07 00:40:13;;;;;;;14.30;4.22;;;2.20;99.90;;;;;;4158976;28;20033;-69
2021/04/07 00:42:14;;;;;;;8.25;3.35;;;2.20;99.90;;;;;;4156901;28;20033;-69
2021/04/07 00:44:15;;;;;;;5.68;2.88;;;2.20;99.90;;;;;;4155638;28;20049;-69
2021/04/07 00:46:15;;;;;;;10.15;3.60;;;2.20;99.90;;;;;;4180926;28;20040;-69
2021/04/07 00:48:17;;;;;;;7.38;2.92;;;2.20;99.90;;;;;;4155940;28;20045;-69
2021/04/07 00:50:20;;;;;;;6.20;3.07;;;2.20;99.90;;;;;;4156328;28;20048;-69
2021/04/07 00:52:20;;;;;;;8.10;3.40;;;2.20;99.90;;;;;;4154817;28;20056;-69
2021/04/07 00:54:22;;;;;;;10.60;3.13;;;2.10;99.90;;;;;;4154353;28;20033;-69
2021/04/07 00:56:22;;;;;;;8.48;2.75;;;2.20;99.90;;;;;;4154595;28;20049;-69
2021/04/07 00:58:23;;;;;;;8.68;2.90;;;2.20;99.90;;;;;;4151244;28;20382;-69
2021/04/07 01:00:27;;;;;;;9.02;2.70;;;2.20;99.90;;;;;;4154620;28;20037;-69
2021/04/07 01:02:27;;;;;;;6.32;2.00;;;2.30;99.90;;;;;;4183450;28;20055;-69
2021/04/07 01:04:29;;;;;;;8.75;2.65;;;2.30;99.90;;;;;;4160008;28;20041;-69
2021/04/07 01:06:30;;;;;;;8.75;2.28;;;2.30;99.90;;;;;;4170710;28;20094;-69
2021/04/07 01:08:30;;;;;;;9.95;2.50;;;2.30;99.90;;;;;;4157005;28;20124;-69
2021/04/07 01:10:31;;;;;;;7.32;2.70;;;2.30;99.90;;;;;;4158561;28;20029;-69
2021/04/07 01:12:33;;;;;;;10.05;2.60;;;2.20;99.90;;;;;;4181059;28;20628;-69
2021/04/07 01:14:35;;;;;;;12.07;2.97;;;2.30;99.90;;;;;;4156137;28;20485;-69
2021/04/07 01:16:36;;;;;;;4.07;1.90;;;2.30;99.90;;;;;;4159087;28;20037;-69
2021/04/07 01:18:37;;;;;;;6.43;2.65;;;2.20;99.90;;;;;;4153373;28;20048;-69
2021/04/07 01:20:38;;;;;;;8.23;2.60;;;2.20;99.90;;;;;;4158144;28;20997;-69
2021/04/07 01:22:40;;;;;;;6.22;2.72;;;2.30;99.90;;;;;;4172167;28;20056;-69
2021/04/07 01:24:41;;;;;;;8.57;2.80;;;2.30;99.90;;;;;;4158452;28;20705;-69
2021/04/07 01:26:42;;;;;;;10.20;2.75;;;2.20;99.90;;;;;;4181403;28;20049;-69
2021/04/07 01:28:43;;;;;;;6.22;2.78;;;2.20;99.90;;;;;;4154885;28;20079;-69
2021/04/07 01:30:47;;;;;;;13.20;3.17;;;2.20;99.90;;;;;;4157710;28;20066;-69
2021/04/07 01:32:48;;;;;;;10.10;2.95;;;2.20;99.90;;;;;;4157511;28;20545;-69
2021/04/07 01:34:48;;;;;;;6.18;2.58;;;2.20;99.90;;;;;;4167420;28;20144;-69
2021/04/07 01:36:50;;;;;;;8.65;2.60;;;2.20;99.90;;;;;;4157585;28;20033;-69
2021/04/07 01:38:51;;;;;;;7.05;2.65;;;2.10;99.90;;;;;;4159242;28;20624;-69
2021/04/07 01:40:53;;;;;;;8.95;3.03;;;2.20;99.90;;;;;;4162633;28;20041;-68
2021/04/07 01:42:55;;;;;;;;;;;2.30;99.90;;;;;;4174411;28;20041;-69
2021/04/07 01:44:56;;;;;;;14.50;2.80;;;2.20;99.90;;;;;;4162986;28;19913;-69
2021/04/07 01:46:56;;;;;;;9.25;2.42;;;2.20;99.90;;;;;;4151924;28;20724;-69
2021/04/07 01:48:57;;;;;;;10.15;2.53;;;2.20;99.90;;;;;;4162919;28;20037;-69
2021/04/07 01:50:59;;;;;;;10.20;2.55;;;2.20;99.90;;;;;;4160434;28;20041;-69
2021/04/07 01:52:59;;;;;;;7.00;2.35;;;2.20;99.90;;;;;;4167543;28;20041;-69
2021/04/07 01:55:00;;;;;;;9.15;2.78;;;2.20;99.90;;;;;;4168335;28;20029;-69
2021/04/07 01:57:01;;;;;;;9.55;2.67;;;2.20;99.90;;;;;;4163775;28;20045;-69
2021/04/07 01:59:06;;;;;;;11.00;2.72;;;2.20;99.90;;;;;;4167136;28;20040;-69
2021/04/07 02:01:06;;;;;;;6.10;2.30;;;2.20;99.90;;;;;;4181927;28;20047;-69
2021/04/07 02:03:07;;;;;;;9.13;2.95;;;2.10;99.90;;;;;;4157908;28;20041;-69
2021/04/07 02:05:09;;;;;;;4.95;2.15;;;2.20;99.90;;;;;;4158746;28;20037;-69
2021/04/07 02:07:15;;;;;;;8.32;2.20;;;2.20;99.90;;;;;;4166824;28;20029;-70
2021/04/07 02:09:18;;;;;;;9.40;2.35;;;2.20;99.90;;;;;;4153046;28;20052;-69
2021/04/07 02:11:19;;;;;;;9.38;2.28;;;2.10;99.90;;;;;;4163773;28;20029;-69
2021/04/07 02:13:20;;;;;;;6.03;2.10;;;2.10;99.90;;;;;;4166524;28;20113;-69
2021/04/07 02:15:22;;;;;;;11.50;2.42;;;2.20;99.90;;;;;;4163541;28;20032;-69
2021/04/07 02:17:23;;;;;;;7.32;2.28;;;2.20;99.90;;;;;;4163331;28;20409;-69
2021/04/07 02:19:26;;;;;;;8.85;2.50;;;2.30;99.90;;;;;;4159417;28;20042;-69
2021/04/07 02:21:26;;;;;;;8.55;3.13;;;2.30;99.90;;;;;;4165237;28;20025;-69
2021/04/07 02:23:27;;;;;;;7.55;1.98;;;2.30;99.90;;;;;;4168259;28;20504;-69
2021/04/07 02:25:27;;;;;;;9.93;2.63;;;2.20;99.90;;;;;;4162486;28;20090;-69
2021/04/07 02:27:28;;;;;;;6.78;2.15;;;2.30;99.90;;;;;;4166475;28;20044;-69
2021/04/07 02:29:29;;;;;;;6.43;1.77;;;2.30;99.90;;;;;;4165882;28;20033;-68
2021/04/07 02:31:29;;;;;;;7.10;2.05;;;2.30;99.90;;;;;;4159521;28;20080;-69
2021/04/07 02:33:30;;;;;;;10.50;2.50;;;2.30;99.90;;;;;;4166423;28;20033;-69
2021/04/07 02:35:31;;;;;;;6.18;2.08;;;2.30;99.90;;;;;;4164932;28;20038;-69
2021/04/07 02:37:32;;;;;;;7.80;3.15;;;2.30;99.90;;;;;;4169353;28;20680;-69
2021/04/07 02:39:32;;;;;;;9.50;2.40;;;2.30;99.90;;;;;;4166883;28;20045;-69
2021/04/07 02:41:33;;;;;;;9.00;2.70;;;2.20;99.90;;;;;;4176920;28;20041;-68
2021/04/07 02:43:34;;;;;;;8.35;2.50;;;2.20;99.90;;;;;;4169164;28;20060;-68
2021/04/07 02:45:35;;;;;;;7.47;2.90;;;2.20;99.90;;;;;;4166700;28;20469;-69
2021/04/07 02:47:35;;;;;;;7.60;2.67;;;2.20;99.90;;;;;;4165081;28;20630;-69
2021/04/07 02:49:36;;;;;;;10.43;3.30;;;2.30;99.90;;;;;;4170567;28;20050;-69
2021/04/07 02:51:37;;;;;;;10.02;3.42;;;2.30;99.90;;;;;;4167424;28;20110;-69
2021/04/07 02:53:37;;;;;;;8.77;2.92;;;2.30;99.90;;;;;;4168659;28;20772;-68
2021/04/07 02:55:38;;;;;;;7.30;2.70;;;2.30;99.90;;;;;;4160899;28;20029;-68
2021/04/07 02:57:39;;;;;;;8.88;2.80;;;2.30;99.90;;;;;;4173118;28;20048;-69
2021/04/07 02:59:39;;;;;;;8.10;2.95;;;2.20;99.90;;;;;;4163558;28;20076;-69
2021/04/07 03:01:40;;;;;;;7.78;2.95;;;2.20;99.90;;;;;;4159827;28;20541;-69
2021/04/07 03:03:40;;;;;;;9.38;3.22;;;2.20;99.90;;;;;;4199109;28;20047;-68
2021/04/07 03:05:41;;;;;;;8.13;3.13;;;2.30;99.90;;;;;;4164918;28;20425;-69
2021/04/07 03:07:42;;;;;;;6.47;3.35;;;2.30;99.90;;;;;;4200776;28;20029;-69
2021/04/07 03:09:43;;;;;;;5.18;3.33;;;2.30;99.90;;;;;;4166865;28;20370;-69
2021/04/07 03:11:43;;;;;;;8.05;4.43;;;2.30;99.90;;;;;;4160863;28;20038;-69
2021/04/07 03:13:45;;;;;;;10.63;4.10;;;2.30;99.90;;;;;;4168920;28;20152;-69
2021/04/07 03:15:46;;;;;;;8.98;4.15;;;2.30;99.90;;;;;;4166842;28;20034;-69
2021/04/07 03:17:48;;;;;;;7.75;4.28;;;2.30;99.90;;;;;;4166322;28;20397;-69
2021/04/07 03:19:49;;;;;;;7.93;4.40;;;2.30;99.90;;;;;;4171065;28;20083;-69
2021/04/07 03:21:50;;;;;;;7.30;4.68;;;2.30;99.90;;;;;;4160809;28;20506;-68
2021/04/07 03:23:50;;;;;;;7.72;5.25;;;2.30;99.90;;;;;;4180868;28;20036;-69
2021/04/07 03:25:51;;;;;;;7.57;5.05;;;2.40;99.90;;;;;;4201447;28;20036;-69
2021/04/07 03:27:51;;;;;;;11.50;5.72;;;2.40;99.90;;;;;;4160654;28;20042;-68
2021/04/07 03:29:53;;;;;;;8.63;5.50;;;2.40;99.90;;;;;;4166244;28;20036;-68
2021/04/07 03:31:53;;;;;;;9.35;5.70;;;2.40;99.90;;;;;;4160042;28;20030;-68
2021/04/07 03:33:54;;;;;;;11.77;5.45;;;2.40;99.90;;;;;;4183121;28;20062;-69
2021/04/07 03:35:55;;;;;;;8.35;4.80;;;2.40;99.90;;;;;;4160695;28;20095;-69
2021/04/07 03:37:56;;;;;;;10.17;5.90;;;2.40;99.90;;;;;;4159730;28;20079;-68
2021/04/07 03:39:57;;;;;;;9.88;5.85;;;2.30;99.90;;;;;;4160684;28;20271;-69
2021/04/07 03:41:57;;;;;;;8.30;5.53;;;2.40;99.90;;;;;;4158441;28;20149;-69
2021/04/07 03:43:58;;;;;;;8.43;4.95;;;2.30;99.90;;;;;;4168639;28;20041;-69
2021/04/07 03:45:59;;;;;;;7.80;5.00;;;2.40;99.90;;;;;;4164778;28;20041;-68
2021/04/07 03:48:00;;;;;;;11.75;5.28;;;2.40;99.90;;;;;;4166305;28;20531;-69
2021/04/07 03:50:00;;;;;;;7.25;4.55;;;2.40;99.90;;;;;;4166612;28;20030;-69
2021/04/07 03:52:01;;;;;;;9.23;4.97;;;2.40;99.90;;;;;;4161058;28;20038;-68
2021/04/07 03:54:02;;;;;;;9.05;4.35;;;2.40;99.90;;;;;;4167451;28;20049;-69
2021/04/07 03:56:03;;;;;;;7.13;4.35;;;2.40;99.90;;;;;;4168280;28;20486;-68
2021/04/07 03:58:03;;;;;;;6.65;4.10;;;2.50;99.90;;;;;;4168751;28;20045;-68
2021/04/07 04:00:05;;;;;;;9.55;3.90;;;2.50;99.90;;;;;;4166165;28;20117;-68
2021/04/07 04:02:05;;;;;;;6.40;3.90;;;2.40;99.90;;;;;;4175597;28;20079;-68
2021/04/07 04:04:06;;;;;;;8.10;3.10;;;2.40;99.90;;;;;;4171605;28;20622;-68
2021/04/07 04:06:06;;;;;;;5.60;3.25;;;2.40;99.90;;;;;;4159806;28;20046;-68
2021/04/07 04:08:07;;;;;;;6.18;3.35;;;2.40;99.90;;;;;;4161160;28;20470;-68
2021/04/07 04:10:08;;;;;;;6.20;3.20;;;2.40;99.90;;;;;;4174889;28;20413;-68
2021/04/07 04:12:09;;;;;;;6.43;2.40;;;2.40;99.90;;;;;;4155732;28;20501;-68
2021/04/07 04:14:10;;;;;;;7.22;2.80;;;2.40;99.90;;;;;;4150209;28;20046;-68
2021/04/07 04:16:10;;;;;;;7.03;2.85;;;2.40;99.90;;;;;;4164853;28;20049;-68
2021/04/07 04:18:11;;;;;;;4.28;2.10;;;2.30;99.90;;;;;;4167666;28;20092;-68
2021/04/07 04:20:14;;;;;;;4.47;2.45;;;2.40;99.90;;;;;;4166101;28;20396;-68
2021/04/07 04:22:14;;;;;;;6.05;2.45;;;2.40;99.90;;;;;;4162312;28;20037;-68
2021/04/07 04:24:15;;;;;;;7.30;2.58;;;2.40;99.90;;;;;;4168374;28;20042;-68
2021/04/07 04:26:15;;;;;;;5.82;2.70;;;2.40;99.90;;;;;;4183446;28;20056;-68
2021/04/07 04:28:16;;;;;;;6.43;2.60;;;2.50;99.90;;;;;;4174497;28;20091;-68
2021/04/07 04:30:21;;;;;;;8.73;3.20;;;2.40;99.90;;;;;;4166884;28;20037;-68
2021/04/07 04:32:22;;;;;;;6.15;2.67;;;2.40;99.90;;;;;;4166653;28;20408;-68
2021/04/07 04:34:23;;;;;;;12.77;3.28;;;2.30;99.90;;;;;;4175672;28;20053;-68
2021/04/07 04:36:23;;;;;;;5.82;2.75;;;2.30;99.90;;;;;;4164076;28;20099;-68
2021/04/07 04:38:27;;;;;;;6.80;2.97;;;2.30;99.90;;;;;;4194649;28;20024;-68
2021/04/07 04:40:27;;;;;;;4.60;2.95;;;2.20;99.90;;;;;;4164665;28;20035;-68
2021/04/07 04:42:28;;;;;;;5.85;3.10;;;2.20;99.90;;;;;;4159549;28;20120;-68
2021/04/07 04:44:29;;;;;;;10.93;3.92;;;2.20;99.90;;;;;;4166148;28;20472;-68
2021/04/07 04:46:29;;;;;;;7.05;3.67;;;2.20;99.90;;;;;;4160781;28;20033;-68
2021/04/07 04:48:30;;;;;;;7.28;4.22;;;2.20;99.90;;;;;;4164024;28;20135;-68
2021/04/07 04:50:31;;;;;;;10.98;4.80;;;2.20;99.90;;;;;;4170489;28;20037;-68
2021/04/07 04:52:31;;;;;;;7.55;4.20;;;2.20;99.90;;;;;;4163049;28;20029;-68
2021/04/07 04:54:32;;;;;;;10.45;4.40;;;2.20;99.90;;;;;;4163829;28;20108;-68
2021/04/07 04:56:33;;;;;;;6.90;3.88;;;2.30;99.90;;;;;;4163088;28;20529;-68
2021/04/07 04:58:33;;;;;;;9.82;4.30;;;2.30;99.90;;;;;;4159623;28;20029;-68
2021/04/07 05:00:34;;;;;;;12.43;4.68;;;2.30;99.90;;;;;;4167814;28;20052;-68
2021/04/07 05:02:35;;;;;;;7.57;4.30;;;2.30;99.90;;;;;;4158175;28;20775;-68
2021/04/07 05:04:36;;;;;;;11.38;5.50;;;2.30;99.90;;;;;;4167580;28;20044;-68
2021/04/07 05:06:37;;;;;;;9.85;4.97;;;2.30;99.90;;;;;;4173156;28;20033;-68
2021/04/07 05:08:38;;;;;;;9.25;5.53;;;2.30;99.90;;;;;;4172237;28;20485;-68
2021/04/07 05:10:39;;;;;;;14.50;6.80;;;2.30;99.90;;;;;;4168288;28;20041;-68
2021/04/07 05:12:39;;;;;;;11.20;6.07;;;2.30;99.90;;;;;;4162433;28;20045;-68
2021/04/07 05:14:40;;;;;;;12.02;6.95;;;2.40;99.90;;;;;;4164929;28;20047;-68
2021/04/07 05:16:40;;;;;;;14.85;7.65;;;2.30;99.90;;;;;;4159792;28;20100;-68
2021/04/07 05:18:41;;;;;;;11.85;7.43;;;2.30;99.90;;;;;;4159178;28;20038;-68
2021/04/07 05:20:42;;;;;;;10.35;7.50;;;2.40;99.90;;;;;;4167932;28;20033;-68
2021/04/07 05:22:43;;;;;;;12.38;7.88;;;2.30;99.90;;;;;;4150540;28;20132;-68
2021/04/07 05:24:44;;;;;;;14.02;8.52;;;2.40;99.90;;;;;;4161619;28;20037;-68
2021/04/07 05:26:44;;;;;;;13.55;9.65;;;2.30;99.90;;;;;;4162250;28;20038;-68
2021/04/07 05:28:46;;;;;;;14.02;9.15;;;2.30;99.90;;;;;;4165899;28;20049;-68
2021/04/07 05:30:59;;;;;;;14.07;9.55;;;2.40;99.90;;;;;;4180329;28;20029;-68
2021/04/07 05:33:00;;;;;;;11.98;8.70;;;2.40;99.90;;;;;;4155928;28;20038;-68
2021/04/07 05:35:01;;;;;;;12.95;8.15;;;2.40;99.90;;;;;;4150185;28;20113;-68
2021/04/07 05:37:01;;;;;;;12.38;9.07;;;2.40;99.90;;;;;;4161813;28;20040;-68
2021/04/07 05:39:02;;;;;;;12.23;9.05;;;2.40;99.90;;;;;;4167320;28;20029;-68
2021/04/07 05:41:04;;;;;;;13.77;7.28;;;2.40;99.90;;;;;;4158918;28;20034;-68
2021/04/07 05:43:05;;;;;;;13.07;8.85;;;2.40;99.90;;;;;;4159709;28;20136;-68
2021/04/07 05:45:06;;;;;;;10.98;7.82;;;2.30;99.90;;;;;;4168069;28;20045;-68
2021/04/07 05:47:06;;;;;;;9.05;7.82;;;2.40;99.90;;;;;;4168916;28;20075;-68
2021/04/07 05:49:07;;;;;;;10.40;7.47;;;2.40;99.90;;;;;;4170126;28;20470;-68
2021/04/07 05:51:08;;;;;;;10.10;7.32;;;2.40;99.90;;;;;;4180501;28;20029;-68
2021/04/07 05:53:09;;;;;;;9.45;7.32;;;2.40;99.90;;;;;;4160412;28;20436;-68
2021/04/07 05:55:11;;;;;;;10.60;6.60;;;2.40;99.90;;;;;;4153916;28;20038;-68
2021/04/07 05:57:12;;;;;;;11.50;7.45;;;2.30;99.90;;;;;;4165611;28;20045;-68
2021/04/07 05:59:12;;;;;;;7.78;6.25;;;2.30;99.90;;;;;;4165870;28;20029;-68
2021/04/07 06:01:13;;;;;;;8.30;6.47;;;2.30;99.90;;;;;;4166386;28;20034;-68
2021/04/07 06:03:14;;;;;;;11.20;7.53;;;2.30;99.90;;;;;;4164789;28;20041;-68
2021/04/07 06:05:15;;;;;;;10.63;6.88;;;2.30;99.90;;;;;;4163979;28;20041;-68
2021/04/07 06:07:15;;;;;;;11.40;6.88;;;2.30;99.90;;;;;;4164572;28;20029;-68
2021/04/07 06:09:16;;;;;;;8.68;6.13;;;2.40;99.90;;;;;;4166125;28;20033;-68
2021/04/07 06:11:18;;;;;;;9.93;6.20;;;2.40;99.90;;;;;;4162066;28;20041;-67
2021/04/07 06:13:18;;;;;;;7.87;6.30;;;2.40;99.90;;;;;;4159076;28;20046;-68
2021/04/07 06:15:20;;;;;;;7.88;5.75;;;2.40;99.90;;;;;;4159661;28;20072;-69
2021/04/07 06:17:20;;;;;;;10.05;6.70;;;2.30;99.90;;;;;;4160829;28;20030;-69
2021/04/07 06:19:21;;;;;;;9.18;6.20;;;2.30;99.90;;;;;;4159721;28;20047;-68
2021/04/07 06:21:21;;;;;;;12.52;6.43;;;2.30;99.90;;;;;;4158261;28;20033;-68
2021/04/07 06:23:22;;;;;;;8.45;5.65;;;2.30;99.90;;;;;;4159206;28;20045;-68
2021/04/07 06:25:23;;;;;;;10.48;6.30;;;2.30;99.90;;;;;;4160014;28;20112;-68
2021/04/07 06:27:24;;;;;;;9.13;5.57;;;2.30;99.90;;;;;;4160762;28;20038;-68
2021/04/07 06:29:25;;;;;;;8.60;5.80;;;2.30;99.90;;;;;;4160633;28;20087;-68
2021/04/07 06:31:25;;;;;;;7.10;5.07;;;2.30;99.90;;;;;;4159026;28;20076;-68
2021/04/07 06:33:33;;;;;;;8.82;5.35;;;2.30;99.90;;;;;;4164863;28;20032;-68
2021/04/07 06:35:34;;;;;;;11.82;5.60;;;2.40;99.90;;;;;;4173225;28;20033;-68
2021/04/07 06:37:35;;;;;;;8.43;6.10;;;2.40;99.90;;;;;;4175440;28;20112;-68
2021/04/07 06:39:35;;;;;;;9.60;5.07;;;2.30;99.90;;;;;;4162897;28;20068;-67
2021/04/07 06:41:36;;;;;;;6.18;4.80;;;2.40;99.90;;;;;;4162211;28;20030;-68
2021/04/07 06:43:37;;;;;;;9.45;5.05;;;2.40;99.90;;;;;;4166434;28;20127;-68
2021/04/07 06:45:39;;;;;;;8.82;4.45;;;2.40;99.90;;;;;;4161047;28;20033;-68
2021/04/07 06:47:40;;;;;;;8.60;4.25;;;2.40;99.90;;;;;;4159385;28;20068;-68
2021/04/07 06:49:42;;;;;;;9.35;4.03;;;2.40;99.90;;;;;;4192318;28;20074;-68
2021/04/07 06:51:43;;;;;;;7.97;3.70;;;2.30;99.90;;;;;;4161080;28;20474;-68
2021/04/07 06:53:49;;;;;;;4.80;3.13;;;2.30;99.90;;;;;;4158083;28;20029;-68
2021/04/07 06:55:49;;;;;;;6.72;3.05;;;2.30;99.90;;;;;;4158919;28;20034;-67
2021/04/07 06:57:52;;;;;;;5.22;3.03;;;2.30;99.90;;;;;;4158786;28;20033;-68
2021/04/07 06:59:52;;;;;;;4.40;2.85;;;2.30;99.90;;;;;;4159563;28;20033;-68
2021/04/07 07:01:53;;;;;;;6.47;2.40;;;2.30;99.90;;;;;;4159901;28;20119;-68
2021/04/07 07:03:54;;;;;;;6.32;2.35;;;2.30;99.90;;;;;;4159024;28;20045;-68
2021/04/07 07:05:54;;;;;;;4.90;2.25;;;2.20;99.90;;;;;;4165497;28;20029;-68
2021/04/07 07:08:17;;;;;;;5.43;2.75;;;2.20;99.90;;;;;;4161195;28;20041;-68
2021/04/07 07:10:18;;;;;;;6.00;2.42;;;2.20;99.90;;;;;;4155158;28;20041;-68
2021/04/07 07:12:19;;;;;;;4.95;2.30;;;2.20;99.90;;;;;;4145605;28;20030;-68
2021/04/07 07:14:21;;;;;;;5.18;2.03;;;2.20;99.90;;;;;;4180520;28;20091;-68
2021/04/07 07:16:28;;;;;;;2.95;1.80;;;2.10;99.90;;;;;;4160264;28;20068;-68
2021/04/07 07:18:29;;;;;;;5.47;1.83;;;2.20;99.90;;;;;;4156588;28;20044;-68
2021/04/07 07:20:35;;;;;;;5.32;1.95;;;2.20;99.90;;;;;;4160574;28;20041;-68
2021/04/07 07:22:36;;;;;;;3.35;1.98;;;2.20;99.90;;;;;;4160390;28;20025;-68
2021/04/07 07:24:39;;;;;;;3.38;1.75;;;2.20;99.90;;;;;;4160653;28;20069;-68
2021/04/07 07:26:41;;;;;;;3.63;2.00;;;2.20;99.90;;;;;;4159913;28;20496;-68
2021/04/07 07:28:49;;;;;;;3.67;1.88;;;2.20;99.90;;;;;;4160729;28;20091;-68
2021/04/07 07:30:50;;;;;;;5.03;1.92;;;2.20;99.90;;;;;;4158737;28;20040;-68
2021/04/07 07:32:50;;;;;;;2.50;1.45;;;2.10;99.90;;;;;;4159535;28;20034;-68
2021/04/07 07:34:51;;;;;;;3.88;1.52;;;2.10;99.90;;;;;;4160229;28;20041;-68
2021/04/07 07:36:52;;;;;;;2.95;1.50;;;2.10;99.90;;;;;;4159769;28;20033;-68
2021/04/07 07:38:55;;;;;;;2.83;1.50;;;2.10;99.90;;;;;;4188558;28;20047;-68
2021/04/07 07:41:06;;;;;;;2.85;1.35;;;2.20;99.90;;;;;;4159455;28;20037;-68
2021/04/07 07:43:07;;;;;;;3.08;1.45;;;2.10;99.90;;;;;;4159778;28;20167;-68
2021/04/07 07:45:08;;;;;;;2.80;1.30;;;2.10;99.90;;;;;;4158008;28;20071;-68
2021/04/07 07:47:30;;;;;;;6.72;2.10;;;2.20;99.90;;;;;;4159069;28;20113;-68
2021/04/07 07:49:31;;;;;;;3.22;1.50;;;2.20;99.90;;;;;;4155877;28;20045;-68
2021/04/07 07:51:32;;;;;;;1.98;1.38;;;2.20;99.90;;;;;;4156625;28;20030;-68
2021/04/07 07:53:32;;;;;;;2.75;1.38;;;2.20;99.90;;;;;;4159678;28;20087;-68
2021/04/07 07:55:38;;;;;;;2.58;1.40;;;2.20;99.90;;;;;;4159477;28;20040;-68
2021/04/07 07:57:38;;;;;;;2.25;1.42;;;2.30;99.90;;;;;;4159565;28;20037;-68
2021/04/07 07:59:39;;;;;;;2.30;1.52;;;2.30;99.90;;;;;;4160200;28;20056;-68
2021/04/07 08:01:44;;;;;;;1.23;0.90;;;2.30;99.90;;;;;;4159387;28;20037;-68
2021/04/07 08:03:46;;;;;;;2.83;1.20;;;2.30;99.90;;;;;;4156870;28;20038;-68
2021/04/07 08:05:47;;;;;;;2.08;1.05;;;2.30;99.90;;;;;;4158701;28;20041;-68
2021/04/07 08:07:48;;;;;;;3.33;1.20;;;2.30;99.90;;;;;;4178178;28;20062;-68
2021/04/07 08:09:48;;;;;;;2.08;1.27;;;2.30;99.90;;;;;;4159421;28;20119;-68
2021/04/07 08:11:49;;;;;;;2.58;1.20;;;2.30;99.90;;;;;;4159120;28;20033;-68
2021/04/07 08:13:53;;;;;;;1.63;1.20;;;2.30;99.90;;;;;;4158584;28;20613;-68
2021/04/07 08:15:55;;;;;;;3.60;1.67;;;2.40;99.90;;;;;;4158958;28;20037;-68
2021/04/07 08:17:56;;;;;;;3.45;1.58;;;2.40;99.90;;;;;;4156867;28;20034;-68
2021/04/07 08:19:59;;;;;;;1.67;1.00;;;2.40;99.90;;;;;;4158275;28;20120;-68
2021/04/07 08:22:05;;;;;;;2.20;1.15;;;2.40;99.90;;;;;;4159405;28;20033;-68
2021/04/07 08:24:08;;;;;;;1.20;0.98;;;2.40;99.90;;;;;;4158716;28;20087;-68
2021/04/07 08:26:14;;;;;;;1.67;1.10;;;2.40;99.90;;;;;;4141108;28;20034;-68
2021/04/07 08:28:16;;;;;;;1.05;0.95;;;2.40;99.90;;;;;;4173126;28;20378;-68
2021/04/07 08:30:19;;;;;;;1.75;1.05;;;2.50;99.90;;;;;;4159224;28;20036;-68
2021/04/07 08:32:23;;;;;;;1.33;1.23;;;2.50;99.90;;;;;;4158256;28;20469;-68
2021/04/07 08:34:24;;;;;;;1.85;1.02;;;2.50;99.90;;;;;;4163618;28;20053;-69
2021/04/07 08:36:28;;;;;;;2.15;1.23;;;2.50;99.90;;;;;;4176332;28;20083;-69
2021/04/07 08:38:31;;;;;;;3.30;1.30;;;2.50;99.90;;;;;;4158424;28;20057;-68
2021/04/07 08:40:40;;;;;;;1.67;1.10;;;2.50;99.90;;;;;;4158444;28;20053;-68
2021/04/07 08:42:42;;;;;;;1.60;1.08;;;2.60;99.90;;;;;;4159375;28;20045;-68
2021/04/07 08:44:48;;;;;;;4.03;1.80;;;2.60;99.90;;;;;;4159402;28;20037;-68
2021/04/07 08:46:57;;;;;;;3.30;1.50;;;2.60;99.90;;;;;;4159090;28;20049;-68
2021/04/07 08:48:58;;;;;;;3.70;1.45;;;2.70;99.90;;;;;;4159650;28;20033;-68
2021/04/07 08:51:07;;;;;;;2.25;1.60;;;2.60;99.90;;;;;;4162170;28;20108;-69
2021/04/07 08:53:12;;;;;;;2.38;1.65;;;2.70;99.90;;;;;;4167942;28;20095;-69
2021/04/07 08:55:20;;;;;;;2.92;1.55;;;2.70;99.90;;;;;;4178413;28;20055;-69
2021/04/07 08:57:32;;;;;;;2.35;1.30;;;2.80;99.90;;;;;;4159382;28;20039;-69
2021/04/07 08:59:32;;;;;;;1.98;1.40;;;2.70;99.90;;;;;;4165353;28;20034;-68
2021/04/07 09:01:37;;;;;;;1.83;1.40;;;2.80;99.90;;;;;;4158965;28;20115;-68
2021/04/07 09:03:42;;;;;;;4.63;1.80;;;2.80;99.90;;;;;;4159175;28;20033;-69
2021/04/07 09:05:46;;;;;;;2.33;1.50;;;2.80;99.90;;;;;;4158363;28;20030;-68
2021/04/07 09:07:52;;;;;;;3.85;1.67;;;2.80;99.90;;;;;;4159149;28;20505;-68
2021/04/07 09:09:53;;;;;;;3.38;1.30;;;2.90;99.90;;;;;;4176137;28;20025;-69
2021/04/07 09:11:54;;;;;;;4.30;1.55;;;2.90;99.90;;;;;;4159063;28;20531;-69
2021/04/07 09:14:00;;;;;;;3.45;1.80;;;2.90;99.90;;;;;;4182324;28;20028;-69
2021/04/07 09:16:06;;;;;;;3.15;1.60;;;2.90;99.90;;;;;;4159366;28;20035;-69
2021/04/07 09:18:07;;;;;;;3.63;1.60;;;2.90;99.90;;;;;;4158684;28;20042;-69
2021/04/07 09:20:08;;;;;;;3.70;1.60;;;3.00;99.90;;;;;;4157008;28;20088;-69
2021/04/07 09:22:10;;;;;;;6.55;2.00;;;3.00;99.90;;;;;;4159537;28;20034;-69
2021/04/07 09:24:19;;;;;;;7.28;2.78;;;3.10;99.90;;;;;;4157874;28;20041;-69
2021/04/07 09:26:24;;;;;;;8.18;4.15;;;3.10;99.90;;;;;;4145214;28;20042;-69
2021/04/07 09:28:35;;;;;;;5.10;2.25;;;3.20;99.90;;;;;;4157753;28;20033;-69
2021/04/07 09:30:47;;;;;;;4.65;2.25;;;3.20;99.90;;;;;;4176195;28;20024;-69
2021/04/07 09:32:48;;;;;;;4.57;2.67;;;3.30;99.90;;;;;;4161512;28;20029;-69
2021/04/07 09:34:48;;;;;;;6.10;2.22;;;3.30;99.90;;;;;;4157898;28;20394;-69
2021/04/07 09:36:50;;;;;;;4.88;2.17;;;3.40;99.90;;;;;;4159995;28;20121;-69
2021/04/07 09:38:52;;;;;;;5.00;2.30;;;3.40;99.90;;;;;;4160303;28;20038;-69
2021/04/07 09:41:08;;;;;;;5.90;2.28;;;3.40;99.90;;;;;;4176477;28;20041;-69
2021/04/07 09:43:10;;;;;;;4.65;1.90;;;3.50;99.90;;;;;;4161679;28;20056;-69
2021/04/07 09:45:25;;;;;;;7.10;3.10;;;3.50;99.90;;;;;;4161921;28;20112;-69
2021/04/07 09:47:29;;;;;;;10.00;3.00;;;3.60;99.90;;;;;;4159265;28;20105;-69
2021/04/07 09:49:32;;;;;;;10.10;2.75;;;3.60;99.90;;;;;;4186207;28;20044;-69
2021/04/07 09:51:45;;;;;;;7.85;2.83;;;3.70;99.90;;;;;;4161458;28;20040;-69
2021/04/07 09:53:46;;;;;;;12.07;3.75;;;3.80;99.90;;;;;;4160002;28;20045;-69
2021/04/07 09:55:48;;;;;;;14.07;3.55;;;3.90;99.90;;;;;;4161219;28;20038;-69
2021/04/07 09:58:00;;;;;;;9.80;2.92;;;4.00;99.90;;;;;;4163499;28;20033;-69
2021/04/07 10:00:00;;;;;;;7.80;2.75;;;4.10;99.90;;;;;;4160845;28;20018;-70
2021/04/07 10:02:06;;;;;;;10.77;3.20;;;4.20;99.90;;;;;;4161974;28;20092;-69
2021/04/07 10:04:07;;;;;;;16.00;3.45;;;4.30;99.90;;;;;;4158947;28;20041;-69
2021/04/07 10:06:23;;;;;;;13.40;3.65;;;4.40;99.90;;;;;;4160894;28;20396;-69
2021/04/07 10:08:25;;;;;;;13.57;3.25;;;4.40;99.90;;;;;;4157963;28;20140;-69
2021/04/07 10:10:26;;;;;;;15.87;3.70;;;4.50;99.90;;;;;;4160295;28;20044;-69
2021/04/07 10:12:28;;;;;;;11.90;3.03;;;4.50;99.90;;;;;;4158443;28;20037;-69
2021/04/07 10:14:29;;;;;;;10.77;2.92;;;4.50;99.90;;;;;;4160207;28;20113;-69
2021/04/07 10:16:34;;;;;;;14.23;3.22;;;4.50;99.90;;;;;;4159478;28;20515;-69
2021/04/07 10:18:34;;;;;;;11.60;3.67;;;4.50;99.90;;;;;;4158996;28;20429;-69
2021/04/07 10:20:36;;;;;;;13.60;4.18;;;4.60;99.90;;;;;;4158112;28;20025;-69
2021/04/07 10:22:38;;;;;;;13.35;3.25;;;4.60;99.90;;;;;;4160592;28;20108;-69
2021/04/07 10:24:38;;;;;;;11.20;3.13;;;4.60;99.90;;;;;;4159652;28;20026;-70
2021/04/07 10:26:43;;;;;;;12.38;3.55;;;4.60;99.90;;;;;;4156820;28;20071;-69
2021/04/07 10:29:00;;;;;;;11.68;3.15;;;4.70;99.90;;;;;;4160448;28;20064;-69
2021/04/07 10:31:07;;;;;;;14.32;3.80;;;4.70;99.90;;;;;;4157910;28;20034;-69
2021/04/07 10:33:08;;;;;;;13.25;4.00;;;4.70;99.90;;;;;;4141509;28;20045;-69
2021/04/07 10:35:10;;;;;;;14.85;4.20;;;4.80;99.90;;;;;;4157250;28;20037;-69
2021/04/07 10:37:12;;;;;;;13.32;4.05;;;4.80;99.90;;;;;;4156992;28;20035;-69
2021/04/07 10:39:19;;;;;;;23.00;4.80;;;4.80;99.90;;;;;;4156825;28;20033;-69
2021/04/07 10:41:25;;;;;;;18.27;4.47;;;4.80;99.90;;;;;;4157184;28;20111;-69
2021/04/07 10:43:31;;;;;;;13.82;3.28;;;4.90;99.90;;;;;;4156870;28;20037;-69